createdAt,value
2023-03-22T00:00:55.835Z,8.01
2023-03-22T00:03:23.326Z,8.14
2023-03-22T00:05:50.457Z,8.06
2023-03-22T00:08:17.216Z,7.97
2023-03-22T00:10:43.931Z,8.06
2023-03-22T00:13:11.653Z,8.09
2023-03-22T00:15:38.265Z,8.02
2023-03-22T00:18:05.902Z,8.05
2023-03-22T00:20:37.617Z,7.84
2023-03-22T00:23:04.445Z,8.05
2023-03-22T00:25:31.281Z,7.93
2023-03-22T00:27:57.939Z,7.93
2023-03-22T00:30:24.631Z,7.80
2023-03-22T00:32:51.249Z,7.62
2023-03-22T00:35:18.028Z,7.71
2023-03-22T00:37:44.729Z,7.77
2023-03-22T00:40:13.162Z,7.82
2023-03-22T00:42:40.980Z,7.78
2023-03-22T00:45:10.470Z,7.70
2023-03-22T00:47:37.822Z,7.64
2023-03-22T00:50:06.436Z,7.71
2023-03-22T00:52:33.289Z,7.71
2023-03-22T00:55:00.026Z,7.57
2023-03-22T00:57:26.711Z,7.57
2023-03-22T00:59:54.030Z,7.44
2023-03-22T01:02:20.712Z,7.57
2023-03-22T01:04:48.273Z,7.48
2023-03-22T01:07:18.087Z,7.60
2023-03-22T01:09:45.608Z,7.53
2023-03-22T01:12:12.688Z,7.58
2023-03-22T01:14:39.994Z,7.43
2023-03-22T01:17:07.364Z,7.46
2023-03-22T01:19:35.401Z,7.47
2023-03-22T01:22:03.244Z,7.44
2023-03-22T01:24:29.935Z,7.23
2023-03-22T01:26:57.146Z,7.17
2023-03-22T01:29:25.064Z,7.18
2023-03-22T01:31:52.207Z,7.13
2023-03-22T01:34:18.841Z,7.08
2023-03-22T01:36:45.593Z,7.08
2023-03-22T01:39:12.228Z,7.05
2023-03-22T01:41:38.969Z,7.04
2023-03-22T01:44:18.584Z,6.91
2023-03-22T01:46:47.023Z,6.91
2023-03-22T01:49:23.359Z,6.84
2023-03-22T01:51:52.068Z,6.88
2023-03-22T01:54:32.568Z,6.94
2023-03-22T01:56:59.582Z,6.93
2023-03-22T01:59:27.242Z,6.96
2023-03-22T02:01:54.415Z,6.91
2023-03-22T02:04:34.122Z,6.99
2023-03-22T02:07:15.634Z,6.87
2023-03-22T02:09:42.965Z,6.90
2023-03-22T02:12:36.741Z,6.77
2023-03-22T02:15:47.126Z,6.78
2023-03-22T02:18:45.996Z,6.80
2023-03-22T02:21:15.172Z,6.81
2023-03-22T02:23:59.713Z,6.76
2023-03-22T02:26:29.244Z,6.72
2023-03-22T02:29:12.766Z,6.68
2023-03-22T02:31:57.937Z,6.61
2023-03-22T02:34:58.307Z,6.53
2023-03-22T02:37:49.473Z,6.56
2023-03-22T02:40:34.761Z,6.47
2023-03-22T02:43:42.307Z,6.41
2023-03-22T02:46:20.388Z,6.36
2023-03-22T02:48:59.940Z,6.45
2023-03-22T02:51:37.514Z,6.42
2023-03-22T02:54:09.498Z,6.44
2023-03-22T02:56:44.422Z,6.39
2023-03-22T02:59:12.382Z,6.41
2023-03-22T03:01:46.473Z,6.45
2023-03-22T03:04:17.793Z,6.38
2023-03-22T03:06:46.352Z,6.39
2023-03-22T03:09:18.320Z,6.28
2023-03-22T03:11:50.988Z,6.34
2023-03-22T03:14:28.304Z,6.28
2023-03-22T03:17:06.484Z,6.35
2023-03-22T03:19:52.628Z,6.27
2023-03-22T03:22:22.203Z,6.30
2023-03-22T03:24:56.444Z,6.43
2023-03-22T03:27:41.281Z,6.39
2023-03-22T03:30:10.468Z,6.35
2023-03-22T03:32:56.026Z,6.30
2023-03-22T03:35:27.389Z,6.35
2023-03-22T03:37:57.792Z,6.32
2023-03-22T03:40:29.022Z,6.24
2023-03-22T03:42:56.675Z,6.36
2023-03-22T03:45:23.638Z,6.37
2023-03-22T03:47:57.145Z,6.37
2023-03-22T03:50:25.666Z,6.45
2023-03-22T03:52:53.916Z,6.32
2023-03-22T03:55:22.132Z,6.29
2023-03-22T03:57:48.834Z,6.40
2023-03-22T04:00:16.264Z,6.42
2023-03-22T04:02:43.714Z,6.40
2023-03-22T04:05:11.744Z,6.49
2023-03-22T04:07:38.833Z,6.41
2023-03-22T04:10:06.325Z,6.40
2023-03-22T04:12:33.142Z,6.48
2023-03-22T04:14:59.981Z,6.55
2023-03-22T04:17:29.280Z,6.47
2023-03-22T04:19:59.296Z,6.41
2023-03-22T04:22:27.902Z,6.55
2023-03-22T04:24:54.501Z,6.61
2023-03-22T04:27:22.469Z,6.79
2023-03-22T04:29:51.197Z,6.84
2023-03-22T04:32:26.368Z,6.83
2023-03-22T04:34:53.405Z,6.81
2023-03-22T04:37:22.694Z,6.91
2023-03-22T04:39:49.417Z,6.74
2023-03-22T04:42:16.110Z,6.68
2023-03-22T04:44:42.764Z,6.87
2023-03-22T04:47:09.485Z,6.95
2023-03-22T04:49:36.170Z,6.73
2023-03-22T04:52:03.094Z,6.83
2023-03-22T04:54:29.781Z,6.56
2023-03-22T04:56:56.410Z,6.91
2023-03-22T04:59:23.061Z,6.70
2023-03-22T05:01:51.501Z,6.85
2023-03-22T05:04:19.114Z,6.69
2023-03-22T05:06:46.630Z,6.72
2023-03-22T05:09:13.680Z,6.85
2023-03-22T05:11:40.848Z,6.54
2023-03-22T05:14:08.981Z,6.69
2023-03-22T05:16:36.229Z,6.67
2023-03-22T05:19:03.118Z,6.61
2023-03-22T05:21:37.029Z,6.68
2023-03-22T05:24:04.073Z,6.85
2023-03-22T05:26:30.959Z,7.01
2023-03-22T05:28:57.790Z,7.01
2023-03-22T05:31:24.578Z,6.95
2023-03-22T05:33:52.299Z,7.04
2023-03-22T05:36:20.906Z,7.22
2023-03-22T05:38:47.834Z,7.20
2023-03-22T05:41:14.837Z,7.27
2023-03-22T05:43:41.798Z,7.21
2023-03-22T05:46:09.975Z,7.21
2023-03-22T05:48:37.698Z,7.01
2023-03-22T05:51:09.053Z,7.32
2023-03-22T05:53:35.831Z,7.24
2023-03-22T05:56:02.430Z,7.37
2023-03-22T05:58:32.239Z,7.20
2023-03-22T06:01:10.470Z,7.38
2023-03-22T06:03:38.311Z,7.02
2023-03-22T06:06:07.043Z,7.15
2023-03-22T06:08:34.228Z,7.48
2023-03-22T06:11:01.108Z,7.41
2023-03-22T06:13:27.766Z,7.43
2023-03-22T06:15:54.575Z,7.61
2023-03-22T06:18:21.197Z,7.77
2023-03-22T06:20:47.830Z,7.77
2023-03-22T06:23:14.505Z,7.82
2023-03-22T06:25:41.153Z,7.67
2023-03-22T06:28:08.849Z,7.74
2023-03-22T06:30:35.695Z,8.03
2023-03-22T06:33:05.232Z,7.99
2023-03-22T06:35:33.066Z,8.07
2023-03-22T06:38:00.565Z,8.28
2023-03-22T06:40:27.547Z,8.29
2023-03-22T06:42:57.024Z,8.56
2023-03-22T06:45:23.831Z,8.14
2023-03-22T06:47:50.816Z,8.70
2023-03-22T06:50:17.508Z,8.80
2023-03-22T06:52:44.127Z,8.83
2023-03-22T06:55:10.829Z,8.99
2023-03-22T06:57:37.472Z,9.10
2023-03-22T07:00:05.404Z,9.01
2023-03-22T07:02:32.172Z,9.05
2023-03-22T07:04:58.889Z,9.00
2023-03-22T07:07:25.632Z,9.38
2023-03-22T07:09:57.136Z,9.14
2023-03-22T07:12:23.700Z,9.32
2023-03-22T07:14:50.505Z,9.40
2023-03-22T07:17:17.172Z,9.50
2023-03-22T07:19:45.017Z,9.45
2023-03-22T07:22:11.626Z,9.50
2023-03-22T07:24:47.204Z,9.65
2023-03-22T07:27:18.236Z,9.73
2023-03-22T07:29:45.078Z,9.80
2023-03-22T07:32:11.797Z,9.14
2023-03-22T07:34:38.583Z,9.06
2023-03-22T07:37:05.338Z,9.29
2023-03-22T07:39:32.079Z,9.17
2023-03-22T07:41:58.733Z,9.45
2023-03-22T07:44:25.804Z,9.61
2023-03-22T07:46:52.653Z,9.57
2023-03-22T07:49:19.451Z,9.72
2023-03-22T07:51:46.259Z,9.30
2023-03-22T07:54:20.192Z,9.96
2023-03-22T07:56:57.646Z,9.53
2023-03-22T07:59:25.106Z,9.75
2023-03-22T08:01:51.813Z,9.57
2023-03-22T08:04:19.874Z,9.76
2023-03-22T08:06:46.761Z,10.15
2023-03-22T08:09:13.332Z,9.91
2023-03-22T08:11:39.944Z,9.89
2023-03-22T08:14:06.622Z,9.94
2023-03-22T08:16:33.495Z,9.81
2023-03-22T08:19:00.531Z,9.70
2023-03-22T08:21:27.504Z,9.85
2023-03-22T08:23:54.430Z,9.88
2023-03-22T08:26:22.431Z,9.78
2023-03-22T08:28:49.080Z,9.71
2023-03-22T08:31:17.241Z,9.77
2023-03-22T08:33:44.633Z,9.85
2023-03-22T08:36:14.141Z,9.97
2023-03-22T08:38:42.599Z,10.13
2023-03-22T08:41:09.551Z,10.42
2023-03-22T08:43:36.256Z,10.45
2023-03-22T08:46:03.039Z,10.24
2023-03-22T08:48:30.830Z,10.31
2023-03-22T08:50:58.244Z,10.43
2023-03-22T08:53:25.117Z,10.44
2023-03-22T08:55:51.785Z,10.25
2023-03-22T08:58:20.129Z,10.53
2023-03-22T09:00:49.376Z,10.53
2023-03-22T09:03:17.006Z,10.62
2023-03-22T09:05:45.093Z,10.44
2023-03-22T09:08:18.569Z,10.69
2023-03-22T09:10:51.690Z,10.45
2023-03-22T09:13:18.999Z,10.33
2023-03-22T09:15:45.879Z,10.26
2023-03-22T09:18:13.023Z,10.57
2023-03-22T09:20:40.191Z,10.67
2023-03-22T09:23:07.139Z,10.73
2023-03-22T09:25:33.855Z,10.66
2023-03-22T09:28:00.606Z,10.99
2023-03-22T09:30:27.758Z,11.00
2023-03-22T09:32:54.810Z,11.21
2023-03-22T09:35:22.053Z,11.63
2023-03-22T09:37:49.570Z,11.55
2023-03-22T09:40:17.823Z,11.90
2023-03-22T09:42:46.999Z,12.27
2023-03-22T09:45:21.508Z,12.10
2023-03-22T09:47:51.242Z,12.54
2023-03-22T09:50:27.061Z,11.97
2023-03-22T09:52:54.168Z,11.88
2023-03-22T09:55:58.446Z,11.79
2023-03-22T09:58:51.060Z,11.82
2023-03-22T10:01:35.479Z,11.87
2023-03-22T10:04:06.431Z,11.90
2023-03-22T10:06:33.273Z,12.30
2023-03-22T10:09:14.968Z,12.57
2023-03-22T10:12:05.204Z,12.00
2023-03-22T10:14:43.614Z,12.06
2023-03-22T10:17:13.513Z,12.11
2023-03-22T10:19:58.828Z,12.05
2023-03-22T10:22:30.550Z,12.03
2023-03-22T10:24:57.706Z,11.84
2023-03-22T10:27:27.006Z,11.99
2023-03-22T10:30:04.210Z,11.72
2023-03-22T10:33:13.640Z,11.81
2023-03-22T10:35:42.052Z,11.62
2023-03-22T10:38:18.953Z,11.75
2023-03-22T10:40:46.481Z,11.77
2023-03-22T10:43:20.413Z,12.07
2023-03-22T10:45:47.226Z,11.63
2023-03-22T10:48:35.550Z,12.02
2023-03-22T10:51:02.447Z,11.72
2023-03-22T10:53:41.591Z,11.88
2023-03-22T10:56:14.539Z,12.16
2023-03-22T10:58:41.399Z,12.21
2023-03-22T11:01:13.676Z,12.86
2023-03-22T11:03:43.489Z,12.84
2023-03-22T11:06:15.956Z,11.88
2023-03-22T11:08:46.855Z,11.96
2023-03-22T11:11:25.715Z,12.17
2023-03-22T11:14:30.771Z,12.30
2023-03-22T11:17:06.434Z,12.14
2023-03-22T11:19:37.134Z,11.58
2023-03-22T11:22:34.779Z,11.94
2023-03-22T11:25:02.270Z,12.05
2023-03-22T11:27:33.057Z,12.09
2023-03-22T11:30:08.758Z,12.64
2023-03-22T11:32:37.753Z,12.45
2023-03-22T11:35:22.337Z,12.26
2023-03-22T11:37:52.008Z,12.61
2023-03-22T11:40:25.191Z,12.28
2023-03-22T11:42:57.034Z,12.37
2023-03-22T11:45:31.863Z,12.89
2023-03-22T11:48:13.845Z,13.07
2023-03-22T11:50:42.286Z,13.01
2023-03-22T11:53:14.828Z,12.89
2023-03-22T11:55:42.133Z,13.03
2023-03-22T11:58:24.651Z,12.63
2023-03-22T12:00:52.604Z,12.66
2023-03-22T12:03:23.857Z,12.12
2023-03-22T12:05:52.510Z,12.11
2023-03-22T12:08:42.881Z,11.99
2023-03-22T12:11:18.104Z,11.98
2023-03-22T12:14:03.906Z,12.18
2023-03-22T12:16:46.828Z,12.28
2023-03-22T12:19:20.272Z,12.78
2023-03-22T12:21:49.610Z,12.90
2023-03-22T12:24:32.944Z,13.01
2023-03-22T12:27:21.673Z,13.22
2023-03-22T12:30:07.397Z,12.92
2023-03-22T12:32:42.041Z,12.48
2023-03-22T12:35:23.933Z,12.66
2023-03-22T12:37:53.388Z,12.46
2023-03-22T12:40:27.679Z,12.07
2023-03-22T12:43:15.850Z,12.12
2023-03-22T12:45:49.312Z,11.97
2023-03-22T12:48:40.877Z,12.16
2023-03-22T12:51:09.752Z,12.25
2023-03-22T12:53:48.667Z,12.53
2023-03-22T12:56:18.488Z,12.50
2023-03-22T12:58:51.919Z,12.43
2023-03-22T13:01:28.857Z,12.94
2023-03-22T13:03:57.747Z,12.97
2023-03-22T13:06:33.235Z,13.31
2023-03-22T13:09:19.383Z,12.99
2023-03-22T13:12:17.782Z,12.87
2023-03-22T13:14:54.145Z,13.02
2023-03-22T13:17:23.556Z,12.76
2023-03-22T13:19:55.906Z,12.53
2023-03-22T13:22:30.817Z,12.16
2023-03-22T13:25:12.630Z,12.03
2023-03-22T13:27:54.022Z,12.03
2023-03-22T13:30:21.774Z,12.28
2023-03-22T13:32:56.608Z,12.32
2023-03-22T13:35:28.322Z,12.31
2023-03-22T13:38:02.685Z,12.02
2023-03-22T13:40:46.306Z,12.00
2023-03-22T13:43:31.790Z,12.02
2023-03-22T13:46:07.106Z,12.34
2023-03-22T13:48:52.533Z,12.63
2023-03-22T13:51:22.413Z,13.05
2023-03-22T13:54:14.040Z,12.49
2023-03-22T13:57:01.502Z,12.63
2023-03-22T13:59:29.736Z,12.92
2023-03-22T14:02:16.032Z,13.34
2023-03-22T14:05:08.100Z,13.28
2023-03-22T14:08:04.341Z,13.14
2023-03-22T14:10:51.473Z,12.79
2023-03-22T14:13:39.788Z,12.77
2023-03-22T14:16:11.845Z,12.69
2023-03-22T14:18:43.371Z,12.36
2023-03-22T14:21:15.990Z,12.33
